createdAt,value
2018-06-28T00:01:44.259Z,1.73
2018-06-28T00:04:12.303Z,2.50
2018-06-28T00:06:40.352Z,1.80
2018-06-28T00:09:09.051Z,1.80
2018-06-28T00:11:37.083Z,2.37
2018-06-28T00:14:05.367Z,1.87
2018-06-28T00:16:33.507Z,3.13
2018-06-28T00:19:01.527Z,2.10
2018-06-28T00:26:24.330Z,1.67
2018-06-28T00:28:52.345Z,2.30
2018-06-28T00:31:20.399Z,1.83
2018-06-28T00:33:48.412Z,2.40
2018-06-28T00:36:16.446Z,2.60
2018-06-28T00:38:44.502Z,3.50
2018-06-28T00:41:12.527Z,2.80
2018-06-28T00:43:40.558Z,1.70
2018-06-28T00:46:08.734Z,1.80
2018-06-28T00:48:36.755Z,2.30
2018-06-28T00:51:04.955Z,2.00
2018-06-28T00:53:33.017Z,2.00
2018-06-28T00:56:01.296Z,2.97
2018-06-28T00:58:29.331Z,1.80
2018-06-28T01:00:57.374Z,1.80
2018-06-28T01:03:25.403Z,2.83
2018-06-28T01:05:53.438Z,2.10
2018-06-28T01:08:21.463Z,4.30
2018-06-28T01:10:49.499Z,2.23
2018-06-28T01:13:17.544Z,1.70
2018-06-28T01:15:45.559Z,1.90
2018-06-28T01:18:13.383Z,1.80
2018-06-28T01:20:41.402Z,1.90
2018-06-28T01:23:09.431Z,3.07
2018-06-28T01:25:37.492Z,2.43
2018-06-28T01:28:05.514Z,2.27
2018-06-28T01:30:33.542Z,1.87
2018-06-28T01:33:01.567Z,3.87
2018-06-28T01:35:29.595Z,2.83
2018-06-28T01:37:57.406Z,2.30
2018-06-28T01:40:25.435Z,2.00
2018-06-28T01:43:05.066Z,3.20
2018-06-28T01:45:33.191Z,2.40
2018-06-28T01:48:01.232Z,2.43
2018-06-28T01:50:29.267Z,1.90
2018-06-28T01:52:57.363Z,2.00
2018-06-28T01:55:25.401Z,2.47
2018-06-28T01:57:53.436Z,2.90
2018-06-28T02:00:21.455Z,3.13
2018-06-28T02:02:49.499Z,1.87
2018-06-28T02:05:17.522Z,4.10
2018-06-28T02:07:45.570Z,3.50
2018-06-28T02:10:13.583Z,3.63
2018-06-28T02:12:41.635Z,2.40
2018-06-28T02:15:09.662Z,2.67
2018-06-28T02:17:37.714Z,2.40
2018-06-28T02:20:05.786Z,2.00
2018-06-28T02:22:33.806Z,3.30
2018-06-28T02:25:01.831Z,1.90
2018-06-28T02:27:29.863Z,3.07
2018-06-28T02:29:57.908Z,2.03
2018-06-28T02:32:25.939Z,6.93
2018-06-28T02:34:53.967Z,1.90
2018-06-28T02:37:22.508Z,2.83
2018-06-28T02:39:50.531Z,2.00
2018-06-28T02:42:18.350Z,2.17
2018-06-28T02:44:46.503Z,3.20
2018-06-28T02:47:14.330Z,2.17
2018-06-28T02:49:42.381Z,2.23
2018-06-28T02:52:10.404Z,3.00
2018-06-28T02:54:38.443Z,2.37
2018-06-28T02:57:06.467Z,2.40
2018-06-28T02:59:34.519Z,2.83
2018-06-28T03:02:02.543Z,2.27
2018-06-28T03:04:30.571Z,2.60
2018-06-28T03:06:58.595Z,2.50
2018-06-28T03:09:26.641Z,3.13
2018-06-28T03:11:54.671Z,2.53
2018-06-28T03:14:22.715Z,2.43
2018-06-28T03:16:51.246Z,2.90
2018-06-28T03:19:19.275Z,7.87
2018-06-28T03:21:47.290Z,2.70
2018-06-28T03:24:15.319Z,2.87
2018-06-28T03:26:43.343Z,3.27
2018-06-28T03:29:11.162Z,2.53
2018-06-28T03:31:39.193Z,5.23
2018-06-28T03:34:07.228Z,2.67
2018-06-28T03:36:35.263Z,2.70
2018-06-28T03:39:03.619Z,2.37
2018-06-28T03:41:31.638Z,2.83
2018-06-28T03:43:59.660Z,2.50
2018-06-28T03:46:27.699Z,2.50
2018-06-28T03:48:55.743Z,3.00
2018-06-28T03:51:23.786Z,3.07
2018-06-28T03:53:51.818Z,3.00
2018-06-28T03:56:19.827Z,3.47
2018-06-28T03:58:47.867Z,3.60
2018-06-28T04:01:15.666Z,3.20
2018-06-28T04:03:43.695Z,3.43
2018-06-28T04:06:11.715Z,3.50
2018-06-28T04:08:39.609Z,3.40
2018-06-28T04:11:07.642Z,3.30
2018-06-28T04:13:35.735Z,3.20
2018-06-28T04:16:03.834Z,3.30
2018-06-28T04:18:31.650Z,5.03
2018-06-28T04:20:59.686Z,5.23
2018-06-28T04:23:27.722Z,4.10
2018-06-28T04:25:55.754Z,3.67
2018-06-28T04:28:23.770Z,4.07
2018-06-28T04:30:51.926Z,5.43
2018-06-28T04:33:20.004Z,4.13
2018-06-28T04:35:48.062Z,3.87
2018-06-28T04:38:16.401Z,4.00
2018-06-28T04:40:45.007Z,3.37
2018-06-28T04:43:13.018Z,2.90
2018-06-28T04:45:41.047Z,3.20
2018-06-28T04:48:09.230Z,2.90
2018-06-28T04:50:37.263Z,3.13
2018-06-28T04:53:05.390Z,3.10
2018-06-28T04:55:33.398Z,4.13
2018-06-28T04:58:01.414Z,3.60
2018-06-28T05:00:29.439Z,4.03
2018-06-28T05:02:57.529Z,3.60
2018-06-28T05:05:25.550Z,3.20
2018-06-28T05:07:53.590Z,2.80
2018-06-28T05:10:21.615Z,7.07
2018-06-28T05:12:49.634Z,3.43
2018-06-28T05:15:17.663Z,9.57
2018-06-28T05:17:45.727Z,3.33
2018-06-28T05:20:13.975Z,4.00
2018-06-28T05:22:41.990Z,3.03
2018-06-28T05:25:10.016Z,4.27
2018-06-28T05:27:38.107Z,3.40
2018-06-28T05:30:06.151Z,3.50
2018-06-28T05:32:34.194Z,3.90
2018-06-28T05:35:02.239Z,4.87
2018-06-28T05:37:30.326Z,3.30
2018-06-28T05:39:58.347Z,4.00
2018-06-28T05:42:26.391Z,4.40
2018-06-28T05:44:54.484Z,4.93
2018-06-28T05:47:22.500Z,4.77
2018-06-28T05:49:50.530Z,3.73
2018-06-28T05:52:18.579Z,6.00
2018-06-28T05:54:46.591Z,3.90
2018-06-28T05:57:18.335Z,3.77
2018-06-28T05:59:46.192Z,5.50
2018-06-28T06:02:14.390Z,3.50
2018-06-28T06:04:42.427Z,3.63
2018-06-28T06:07:10.507Z,4.43
2018-06-28T06:09:38.526Z,4.90
2018-06-28T06:12:06.592Z,3.70
2018-06-28T06:14:34.570Z,4.13
2018-06-28T06:17:02.585Z,3.77
2018-06-28T06:21:57.800Z,4.80
2018-06-28T06:24:25.829Z,4.30
2018-06-28T06:26:53.635Z,5.03
2018-06-28T06:29:21.716Z,4.30
2018-06-28T06:31:49.666Z,4.23
2018-06-28T06:34:17.691Z,4.40
2018-06-28T06:36:45.714Z,8.37
2018-06-28T06:39:13.730Z,6.77
2018-06-28T06:41:41.802Z,5.07
2018-06-28T06:44:09.821Z,4.67
2018-06-28T06:46:37.842Z,4.97
2018-06-28T06:49:05.890Z,5.73
2018-06-28T06:51:33.915Z,7.97
2018-06-28T06:54:01.936Z,3.90
2018-06-28T06:56:29.971Z,5.40
2018-06-28T06:58:57.991Z,6.17
2018-06-28T07:01:26.029Z,4.97
2018-06-28T07:03:53.839Z,4.40
2018-06-28T07:06:21.867Z,4.20
2018-06-28T07:08:49.883Z,4.13
2018-06-28T07:11:17.902Z,5.50
2018-06-28T07:13:45.926Z,3.97
2018-06-28T07:16:13.975Z,5.43
2018-06-28T07:18:41.996Z,4.87
2018-06-28T07:21:10.042Z,6.30
2018-06-28T07:23:38.170Z,5.27
2018-06-28T07:28:33.626Z,4.07
2018-06-28T07:48:13.224Z,4.00
2018-06-28T08:05:25.066Z,7.23
2018-06-28T08:10:20.459Z,5.60
2018-06-28T08:17:43.231Z,5.70
2018-06-28T08:25:06.229Z,3.40
2018-06-28T08:37:24.039Z,3.17
2018-06-28T08:39:52.204Z,4.90
2018-06-28T08:44:47.609Z,5.70
2018-06-28T08:49:43.008Z,4.70
2018-06-28T08:52:11.043Z,3.05
2018-06-28T08:57:06.430Z,4.15
2018-06-28T09:04:29.404Z,4.23
2018-06-28T09:09:24.824Z,5.10
2018-06-28T09:11:52.842Z,3.25
2018-06-28T09:14:20.866Z,3.10
2018-06-28T09:21:43.675Z,3.30
2018-06-28T09:26:38.907Z,3.40
2018-06-28T09:29:06.927Z,3.30
2018-06-28T09:31:34.967Z,3.55
2018-06-28T09:53:41.899Z,3.10
2018-06-28T10:05:59.462Z,5.80
2018-06-28T10:08:27.507Z,3.92
2018-06-28T10:10:55.570Z,3.20
2018-06-28T10:13:23.590Z,2.98
2018-06-28T10:15:51.606Z,4.97
2018-06-28T10:28:08.890Z,2.33
2018-06-28T10:30:36.918Z,2.20
2018-06-28T10:45:21.819Z,2.50
2018-06-28T10:47:49.641Z,3.47
2018-06-28T10:50:17.715Z,3.30
2018-06-28T10:52:45.744Z,2.30
2018-06-28T10:55:13.790Z,3.20
2018-06-28T10:57:41.801Z,3.77
2018-06-28T11:00:09.826Z,2.72
2018-06-28T11:02:37.875Z,4.13
2018-06-28T11:05:06.082Z,2.90
2018-06-28T11:07:34.161Z,4.23
2018-06-28T11:10:02.162Z,3.33
2018-06-28T11:12:30.187Z,3.73
2018-06-28T11:14:58.225Z,11.53
2018-06-28T11:17:26.246Z,5.07
2018-06-28T11:19:54.306Z,3.30
2018-06-28T11:29:44.450Z,3.40
2018-06-28T11:34:39.638Z,3.63
2018-06-28T11:37:07.665Z,3.60
2018-06-28T11:39:35.678Z,10.03
2018-06-28T11:42:03.714Z,4.87
2018-06-28T11:44:31.743Z,3.80
2018-06-28T11:49:26.934Z,4.43
2018-06-28T11:51:54.950Z,3.00
2018-06-28T11:54:22.990Z,4.20
2018-06-28T11:56:51.052Z,5.27
2018-06-28T11:59:18.862Z,3.30
2018-06-28T12:01:46.883Z,5.57
2018-06-28T12:04:14.918Z,3.93
2018-06-28T12:06:42.985Z,3.17
2018-06-28T12:09:11.675Z,3.40
2018-06-28T12:11:40.041Z,5.67
2018-06-28T12:14:08.300Z,4.10
2018-06-28T12:16:36.322Z,4.30
2018-06-28T12:19:04.513Z,4.00
2018-06-28T12:21:32.550Z,3.33
2018-06-28T12:24:00.564Z,6.33
2018-06-28T12:26:28.583Z,3.30
2018-06-28T12:28:56.678Z,5.23
2018-06-28T12:31:24.794Z,3.50
2018-06-28T12:33:52.806Z,3.27
2018-06-28T12:36:20.834Z,4.17
2018-06-28T12:38:48.859Z,3.90
2018-06-28T12:46:11.748Z,3.40
2018-06-28T12:48:39.763Z,4.45
2018-06-28T12:51:07.862Z,3.53
2018-06-28T12:53:35.881Z,3.57
2018-06-28T12:56:24.843Z,3.67
2018-06-28T12:58:54.096Z,3.90
2018-06-28T13:01:23.271Z,4.83
2018-06-28T13:03:51.430Z,3.63
2018-06-28T13:06:20.074Z,5.90
2018-06-28T13:08:48.102Z,3.73
2018-06-28T13:11:16.120Z,3.43
2018-06-28T13:13:44.151Z,5.23
2018-06-28T13:16:13.713Z,4.30
2018-06-28T13:18:41.903Z,4.00
2018-06-28T13:21:10.316Z,4.33
2018-06-28T13:23:38.315Z,4.30
2018-06-28T13:31:01.284Z,3.80
2018-06-28T13:35:57.099Z,3.80
2018-06-28T13:38:25.353Z,5.15
2018-06-28T13:40:53.469Z,3.97
2018-06-28T13:43:21.430Z,3.83
2018-06-28T13:45:49.479Z,4.55
2018-06-28T13:48:17.682Z,3.60
2018-06-28T13:53:13.066Z,5.53
2018-06-28T13:55:41.086Z,5.80
2018-06-28T14:03:04.007Z,4.30
2018-06-28T14:10:26.730Z,3.40
2018-06-28T14:12:54.750Z,3.70
2018-06-28T14:15:22.766Z,4.60
2018-06-28T14:17:50.798Z,5.10
2018-06-28T14:20:18.824Z,7.17
2018-06-28T14:22:46.854Z,10.17
2018-06-28T14:25:14.878Z,5.10
2018-06-28T14:27:42.894Z,6.57
2018-06-28T14:30:12.466Z,5.27
2018-06-28T14:32:41.137Z,5.10
2018-06-28T14:35:09.190Z,3.70
2018-06-28T14:40:05.348Z,4.40
2018-06-28T14:42:33.382Z,3.70
2018-06-28T14:45:01.814Z,4.00
2018-06-28T14:47:30.043Z,7.47
2018-06-28T14:49:58.058Z,4.13
2018-06-28T15:24:21.933Z,13.05
2018-06-28T15:26:49.981Z,10.20
2018-06-28T15:29:17.986Z,9.93
2018-06-28T15:31:46.031Z,13.23
2018-06-28T15:34:14.069Z,9.20
2018-06-28T15:36:42.095Z,10.93
2018-06-28T15:39:10.323Z,9.33
2018-06-28T15:41:38.846Z,8.63
2018-06-28T15:44:06.963Z,9.07
2018-06-28T15:46:35.011Z,8.63
2018-06-28T15:49:03.055Z,8.63
2018-06-28T15:51:31.254Z,8.07
2018-06-28T15:53:59.818Z,9.13
2018-06-28T15:56:27.844Z,7.93
2018-06-28T15:58:55.714Z,8.60
2018-06-28T16:01:23.770Z,8.47
2018-06-28T16:03:51.789Z,8.63
2018-06-28T16:06:19.835Z,8.43
2018-06-28T16:08:47.885Z,8.23
2018-06-28T16:11:15.964Z,8.47
2018-06-28T16:13:43.950Z,8.70
2018-06-28T16:16:11.962Z,9.70
2018-06-28T16:18:39.990Z,9.70
2018-06-28T16:21:08.145Z,9.13
2018-06-28T16:23:36.390Z,9.27
2018-06-28T16:26:04.523Z,11.13
2018-06-28T16:28:32.816Z,9.37
2018-06-28T16:31:00.966Z,10.00
2018-06-28T16:35:56.482Z,9.87
2018-06-28T16:38:24.543Z,9.27
2018-06-28T16:40:52.559Z,8.27
2018-06-28T16:43:27.099Z,9.27
2018-06-28T16:45:55.129Z,9.40
2018-06-28T16:48:23.159Z,8.57
2018-06-28T16:53:18.595Z,8.50
2018-06-28T16:55:46.632Z,8.40
2018-06-28T16:58:14.650Z,8.27
2018-06-28T17:15:29.579Z,7.77
2018-06-28T17:17:57.614Z,9.53
2018-06-28T17:20:25.697Z,7.40
2018-06-28T17:22:53.670Z,8.67
2018-06-28T17:25:21.702Z,10.63
2018-06-28T17:27:49.727Z,10.77
2018-06-28T17:30:17.770Z,11.20
2018-06-28T17:32:45.831Z,11.20
2018-06-28T17:35:13.748Z,10.83
2018-06-28T17:37:41.783Z,11.60
2018-06-28T17:40:09.840Z,12.17
2018-06-28T17:42:37.841Z,12.20
2018-06-28T17:45:06.038Z,11.60
2018-06-28T17:47:34.063Z,10.77
2018-06-28T17:50:02.090Z,10.50
2018-06-28T17:52:30.110Z,10.43
2018-06-28T17:54:58.130Z,10.17
2018-06-28T17:57:26.145Z,9.83
2018-06-28T17:59:54.168Z,10.63
2018-06-28T18:02:22.203Z,10.23
2018-06-28T18:04:50.268Z,11.30
2018-06-28T18:07:18.247Z,9.50
2018-06-28T18:09:46.266Z,9.50
2018-06-28T18:12:14.317Z,10.27
2018-06-28T18:14:42.335Z,10.53
2018-06-28T18:17:10.374Z,10.27
2018-06-28T18:19:38.431Z,10.90
2018-06-28T18:22:06.474Z,11.47
2018-06-28T18:24:34.713Z,10.90
2018-06-28T18:27:02.733Z,12.30
2018-06-28T18:29:30.750Z,11.93
2018-06-28T18:31:58.774Z,11.37
2018-06-28T18:34:26.819Z,12.10
2018-06-28T18:36:54.851Z,10.50
2018-06-28T18:39:22.910Z,12.53
2018-06-28T18:41:51.621Z,13.50
2018-06-28T18:44:19.427Z,12.80
2018-06-28T18:46:47.439Z,12.10
2018-06-28T18:49:15.606Z,14.07
2018-06-28T18:51:43.631Z,15.00
2018-06-28T18:54:11.656Z,17.97
2018-06-28T18:56:39.667Z,15.73
2018-06-28T18:59:07.683Z,16.40
2018-06-28T19:01:35.744Z,16.03
2018-06-28T19:04:03.784Z,17.90
2018-06-28T19:06:31.853Z,13.17
2018-06-28T19:08:59.882Z,15.23
2018-06-28T19:11:27.909Z,17.73
2018-06-28T19:14:01.372Z,11.90
2018-06-28T19:16:34.808Z,12.20
2018-06-28T19:19:02.842Z,13.00
2018-06-28T19:22:38.139Z,10.90
2018-06-28T19:25:06.175Z,10.93
2018-06-28T19:27:34.216Z,10.90
2018-06-28T19:30:07.761Z,11.80
2018-06-28T19:32:35.806Z,11.27
2018-06-28T19:35:03.851Z,13.17
2018-06-28T19:37:37.295Z,10.97
2018-06-28T19:40:12.416Z,11.20
2018-06-28T19:42:45.927Z,10.77
2018-06-28T19:45:14.025Z,10.50
2018-06-28T19:47:42.052Z,11.40
2018-06-28T19:50:15.507Z,9.00
2018-06-28T19:52:48.970Z,8.15
2018-06-28T19:55:16.973Z,7.77
2018-06-28T19:57:45.010Z,7.47
2018-06-28T20:00:18.249Z,7.03
2018-06-28T20:02:51.830Z,6.90
2018-06-28T20:05:19.848Z,7.80
2018-06-28T20:07:47.868Z,7.73
2018-06-28T20:10:15.901Z,8.13
2018-06-28T20:12:49.420Z,7.60
2018-06-28T20:15:22.907Z,7.83
2018-06-28T20:18:01.691Z,8.43
2018-06-28T20:20:30.975Z,7.73
2018-06-28T20:22:59.032Z,8.13
2018-06-28T20:25:27.526Z,8.00
2018-06-28T20:28:01.030Z,7.27
2018-06-28T20:30:34.622Z,7.83
2018-06-28T20:34:06.926Z,7.90
2018-06-28T20:36:35.106Z,7.90
2018-06-28T20:39:03.217Z,9.10
2018-06-28T20:41:31.238Z,7.87
2018-06-28T20:43:59.297Z,7.87
2018-06-28T20:46:27.298Z,13.63
2018-06-28T20:48:55.349Z,9.80
2018-06-28T20:51:23.154Z,8.03
2018-06-28T20:53:51.203Z,9.37
2018-06-28T20:56:19.214Z,11.07
2018-06-28T20:58:47.025Z,10.87
2018-06-28T21:01:15.174Z,9.10
2018-06-28T21:03:43.354Z,10.73
2018-06-28T21:06:11.431Z,12.27
2018-06-28T21:08:39.738Z,14.27
2018-06-28T21:11:08.043Z,12.27
2018-06-28T21:13:36.335Z,11.57
2018-06-28T21:16:04.972Z,10.77
2018-06-28T21:18:33.025Z,9.47
2018-06-28T21:21:01.069Z,9.27
2018-06-28T21:23:29.102Z,8.30
2018-06-28T21:25:57.134Z,9.67
2018-06-28T21:28:25.184Z,9.80
2018-06-28T21:33:20.622Z,9.10
2018-06-28T21:35:48.655Z,7.80
2018-06-28T21:38:16.678Z,8.57
2018-06-28T21:40:44.714Z,8.90
2018-06-28T21:43:12.742Z,8.47
2018-06-28T21:45:41.599Z,8.13
2018-06-28T21:48:09.636Z,7.10
2018-06-28T21:50:37.654Z,5.63
2018-06-28T21:53:05.694Z,6.37
2018-06-28T21:55:33.813Z,6.53
2018-06-28T22:00:34.631Z,6.70
2018-06-28T22:03:04.746Z,7.47
2018-06-28T22:05:33.319Z,6.13
2018-06-28T22:08:01.928Z,6.73
2018-06-28T22:10:29.803Z,6.43
2018-06-28T22:12:57.895Z,6.50
2018-06-28T22:15:27.288Z,8.30
2018-06-28T22:17:57.286Z,7.93
2018-06-28T22:20:26.570Z,7.10
2018-06-28T22:22:54.935Z,7.27
2018-06-28T22:25:23.523Z,7.60
2018-06-28T22:27:51.534Z,7.90
2018-06-28T22:30:19.735Z,7.17
2018-06-28T22:32:47.767Z,7.60
2018-06-28T22:35:15.811Z,9.57
2018-06-28T22:37:44.846Z,7.20
2018-06-28T22:40:13.023Z,7.70
2018-06-28T22:42:41.106Z,7.90
2018-06-28T22:45:09.803Z,6.73
2018-06-28T22:47:37.826Z,7.87
2018-06-28T22:50:06.116Z,7.77
2018-06-28T22:52:34.578Z,7.93
2018-06-28T22:55:02.611Z,9.65
2018-06-28T23:07:20.918Z,9.37
2018-06-28T23:09:48.940Z,8.67
2018-06-28T23:41:45.222Z,7.23
2018-06-28T23:44:13.283Z,10.57
2018-06-28T23:46:41.299Z,8.70
2018-06-28T23:49:09.330Z,7.73
2018-06-28T23:51:37.350Z,7.70
2018-06-28T23:54:05.582Z,7.27
2018-06-28T23:56:33.612Z,8.80
